Time;durP1;ratioP1;P1;durP2;ratioP2;P2;SDS_P1;SDS_P2;PMS_P1;PMS_P2;Temp;Humidity;BMP_temperature;BMP_pressure;BME280_temperature;BME280_humidity;BME280_pressure;Samples;Min_cycle;Max_cycle;Signal;HPM_P1;HPM_P2
2021/12/02 00:01:46;;;;;;;;;2.00;1.25;;;;;7.95;72.10;99615.34;4763255;29;45778;-84
2021/12/02 00:04:14;;;;;;;;;1.25;1.00;;;;;7.73;72.24;99592.69;4777733;29;45612;-84
2021/12/02 00:06:44;;;;;;;;;2.00;1.00;;;;;7.54;72.02;99551.53;4761393;29;46567;-83
2021/12/02 00:09:10;;;;;;;;;1.75;1.00;;;;;7.83;72.26;99609.28;4776600;29;46012;-84
2021/12/02 00:11:37;;;;;;;;;2.00;2.00;;;;;7.59;72.45;99565.06;4776705;29;45673;-82
2021/12/02 00:14:09;;;;;;;;;1.00;1.00;;;;;7.71;72.52;99584.16;4762108;29;45634;-85
2021/12/02 00:22:10;;;;;;;;;1.25;1.00;;;;;7.83;72.42;99596.25;4778824;29;45713;-85
2021/12/02 00:24:48;;;;;;;;;1.25;1.00;;;;;7.88;72.51;99612.38;4779202;29;45733;-85
2021/12/02 00:27:18;;;;;;;;;1.00;1.00;;;;;7.92;72.61;99631.25;4779620;29;45875;-85
2021/12/02 00:29:46;;;;;;;;;2.00;1.00;;;;;7.68;72.90;99607.00;4801318;29;46103;-84
2021/12/02 00:32:12;;;;;;;;;2.00;1.00;;;;;7.56;72.63;99586.13;4819132;29;45696;-82
2021/12/02 00:34:43;;;;;;;;;1.75;1.75;;;;;7.63;72.75;99614.34;4802159;29;45662;-85
2021/12/02 00:37:09;;;;;;;;;2.00;1.00;;;;;7.44;72.70;99573.19;4799771;29;47522;-84
2021/12/02 00:39:35;;;;;;;;;1.00;0.00;;;;;7.30;72.95;99552.53;4815238;29;46454;-84
2021/12/02 00:42:01;;;;;;;;;2.50;2.50;;;;;7.66;73.15;99617.56;4800039;29;45558;-84
2021/12/02 00:44:29;;;;;;;;;1.00;1.00;;;;;7.33;73.07;99571.41;4796813;29;46123;-86
2021/12/02 00:46:55;;;;;;;;;0.75;0.75;;;;;7.73;73.19;99633.56;4814475;29;45746;-83
2021/12/02 00:49:27;;;;;;;;;2.00;2.00;;;;;7.67;73.28;99631.41;4814163;29;45695;-87
2021/12/02 00:51:57;;;;;;;;;2.00;1.50;;;;;7.41;73.30;99586.44;4797572;29;45793;-90
2021/12/02 00:54:26;;;;;;;;;2.00;1.00;;;;;7.72;73.18;99648.34;4812545;29;45584;-85
2021/12/02 00:56:53;;;;;;;;;2.75;2.00;;;;;7.76;73.32;99647.22;4783772;29;45789;-87
2021/12/02 00:59:21;;;;;;;;;1.00;1.00;;;;;7.14;73.26;99553.69;4783397;29;47315;-89
2021/12/02 01:01:52;;;;;;;;;2.00;1.00;;;;;7.56;73.43;99624.38;4799381;29;45694;-84
2021/12/02 01:04:22;;;;;;;;;3.00;2.00;;;;;7.76;73.64;99662.84;4813655;29;45893;-85
2021/12/02 01:06:48;;;;;;;;;3.00;1.00;;;;;7.34;73.65;99595.69;4811660;29;47273;-84
2021/12/02 01:09:16;;;;;;;;;1.25;1.25;;;;;7.76;73.65;99664.63;4811882;29;46214;-85
2021/12/02 01:11:44;;;;;;;;;1.50;1.25;;;;;7.64;73.72;99649.88;4812173;29;45729;-84
2021/12/02 01:14:11;;;;;;;;;2.00;1.75;;;;;7.55;73.93;99647.03;4800259;29;45663;-82
2021/12/02 01:16:37;;;;;;;;;5.00;2.50;;;;;7.71;73.84;99678.00;4818830;29;45694;-83
2021/12/02 01:19:04;;;;;;;;;2.50;2.25;;;;;7.17;73.84;99602.13;4805033;29;48019;-85
2021/12/02 01:21:37;;;;;;;;;5.00;2.00;;;;;7.72;73.95;99682.25;4825250;29;45147;-84
2021/12/02 01:24:05;;;;;;;;;3.25;3.25;;;;;7.74;73.83;99680.38;4807821;29;45332;-84
2021/12/02 01:26:33;;;;;;;;;3.00;2.00;;;;;7.74;74.07;99675.16;4817652;29;45575;-82
2021/12/02 01:29:02;;;;;;;;;3.00;2.00;;;;;7.75;74.11;99679.44;4786224;29;46193;-84
2021/12/02 01:34:53;;;;;;;;;4.75;2.75;;;;;7.61;74.36;99663.16;4814901;29;45533;-85
2021/12/02 01:37:18;;;;;;;;;3.50;2.75;;;;;7.59;74.19;99650.22;4783300;29;47463;-85
2021/12/02 01:39:48;;;;;;;;;3.25;3.25;;;;;7.57;74.61;99641.69;4812589;29;45488;-88
2021/12/02 01:42:38;;;;;;;;;5.75;4.75;;;;;7.78;74.42;99692.22;4796174;29;45933;-87
2021/12/02 01:45:04;;;;;;;;;5.00;3.25;;;;;7.33;74.37;99615.69;4772855;29;45703;-86
2021/12/02 01:47:34;;;;;;;;;6.00;3.00;;;;;7.81;74.56;99704.22;4772416;29;46492;-88
2021/12/02 01:50:04;;;;;;;;;0.25;0.00;;;;;7.82;74.60;99711.09;4774920;29;45792;-85
2021/12/02 01:52:32;;;;;;;;;5.75;5.00;;;;;7.67;74.62;99689.59;4760676;29;45579;-85
2021/12/02 01:55:10;;;;;;;;;5.75;5.00;;;;;7.52;74.47;99660.28;4775409;29;45807;-86
2021/12/02 01:57:43;;;;;;;;;7.00;6.00;;;;;7.64;74.87;99687.22;4771676;29;47477;-88
2021/12/02 02:00:19;;;;;;;;;5.25;5.00;;;;;7.53;74.71;99672.38;4772265;29;46312;-83
2021/12/02 02:02:46;;;;;;;;;6.00;3.25;;;;;7.80;74.88;99729.47;4772692;29;45885;-84
2021/12/02 02:05:15;;;;;;;;;5.75;2.50;;;;;7.80;74.66;99728.63;4770469;29;45787;-85
2021/12/02 02:07:59;;;;;;;;;3.25;3.25;;;;;7.80;74.62;99726.84;4769901;29;45629;-86
2021/12/02 02:10:26;;;;;;;;;7.00;4.00;;;;;7.39;74.67;99654.31;4770449;29;46217;-87
2021/12/02 02:12:54;;;;;;;;;6.00;5.00;;;;;7.58;74.68;99685.88;4771092;29;45806;-86
2021/12/02 02:15:21;;;;;;;;;3.00;2.50;;;;;7.27;74.57;99638.75;4780053;29;45680;-86
2021/12/02 02:17:57;;;;;;;;;5.00;3.00;;;;;7.46;74.63;99670.31;4811432;29;45667;-84
2021/12/02 02:20:49;;;;;;;;;5.00;3.00;;;;;7.78;74.41;99743.53;4797565;29;47451;-87
2021/12/02 02:23:14;;;;;;;;;5.00;4.00;;;;;7.88;74.36;99753.19;4798566;29;45645;-87
2021/12/02 02:25:45;;;;;;;;;7.00;5.00;;;;;7.72;74.15;99717.94;4783008;29;45742;-87
2021/12/02 02:28:12;;;;;;;;;3.50;3.00;;;;;7.71;74.24;99734.53;4800793;29;46271;-84
2021/12/02 02:30:38;;;;;;;;;5.00;5.00;;;;;7.51;74.19;99704.69;4798752;29;46490;-84
2021/12/02 02:33:03;;;;;;;;;3.00;3.00;;;;;7.90;74.27;99763.50;4818818;29;45830;-83
2021/12/02 02:35:29;;;;;;;;;3.50;2.50;;;;;7.67;74.19;99725.25;4774298;29;45754;-83
2021/12/02 02:37:57;;;;;;;;;5.00;3.00;;;;;7.66;74.23;99729.66;4803538;29;48442;-85
2021/12/02 02:40:24;;;;;;;;;3.00;3.00;;;;;7.78;74.52;99756.56;4804215;29;47205;-86
2021/12/02 02:42:56;;;;;;;;;3.00;2.25;;;;;7.69;73.89;99736.41;4804050;29;45890;-87
2021/12/02 02:45:25;;;;;;;;;2.50;2.00;;;;;7.89;74.06;99780.09;4804762;29;45640;-86
2021/12/02 02:47:52;;;;;;;;;2.00;2.00;;;;;7.83;74.23;99794.41;4823240;29;45654;-85
2021/12/02 02:50:19;;;;;;;;;6.00;3.50;;;;;7.69;73.84;99752.88;4824149;29;45443;-85
2021/12/02 02:52:46;;;;;;;;;1.00;1.00;;;;;7.74;74.18;99755.13;4828865;29;45327;-83
2021/12/02 02:55:21;;;;;;;;;2.75;2.25;;;;;7.35;73.93;99704.13;4797610;29;45519;-87
2021/12/02 02:58:19;;;;;;;;;4.00;3.00;;;;;7.88;74.45;99789.69;4820221;29;45633;-91
2021/12/02 03:00:38;;;;;;;;;2.25;2.00;;;;;7.70;73.84;99745.88;4817069;29;46204;-92
2021/12/02 03:08:42;;;;;;;;;1.50;1.50;;;;;7.59;73.30;99747.50;4798120;29;46109;-88
2021/12/02 03:11:12;;;;;;;;;2.00;1.00;;;;;7.68;73.51;99768.63;4811350;29;47299;-86
2021/12/02 03:13:53;;;;;;;;;1.75;1.00;;;;;7.66;73.32;99767.91;4789740;29;45680;-85
2021/12/02 03:19:04;;;;;;;;;3.00;2.00;;;;;7.81;72.80;99798.91;4812266;29;45898;-85
2021/12/02 03:21:31;;;;;;;;;2.75;1.00;;;;;7.58;72.95;99779.72;4796129;29;47548;-87
2021/12/02 03:23:59;;;;;;;;;1.25;1.00;;;;;7.81;72.81;99816.34;4796041;29;45621;-84
2021/12/02 03:26:28;;;;;;;;;0.75;0.75;;;;;7.77;72.67;99825.31;4810859;29;45935;-85
2021/12/02 03:28:54;;;;;;;;;1.25;1.00;;;;;7.55;72.50;99786.94;4811144;29;45595;-83
2021/12/02 03:31:23;;;;;;;;;0.25;0.25;;;;;7.55;72.56;99808.63;4793571;29;47119;-84
2021/12/02 03:33:50;;;;;;;;;1.00;0.00;;;;;7.63;72.43;99820.25;4795251;29;45616;-84
2021/12/02 03:36:16;;;;;;;;;1.00;1.00;;;;;7.76;72.26;99837.53;4811800;29;45588;-87
2021/12/02 03:38:43;;;;;;;;;0.25;0.25;;;;;7.74;72.18;99821.16;4814830;29;46644;-85
2021/12/02 03:41:08;;;;;;;;;2.00;0.00;;;;;7.64;72.35;99821.94;4795656;29;45984;-84
2021/12/02 03:43:43;;;;;;;;;0.00;0.00;;;;;7.51;72.38;99830.59;4794050;29;45841;-92
2021/12/02 03:46:13;;;;;;;;;1.00;0.00;;;;;7.42;71.97;99781.75;4799406;29;45570;-90
2021/12/02 03:48:40;;;;;;;;;1.00;1.00;;;;;7.65;71.75;99836.63;4817061;29;45736;-89
2021/12/02 03:51:07;;;;;;;;;1.00;1.00;;;;;7.66;72.08;99833.91;4813779;29;46625;-90
2021/12/02 03:53:33;;;;;;;;;1.75;1.00;;;;;7.53;72.13;99801.84;4812612;29;45586;-88
2021/12/02 03:55:58;;;;;;;;;0.00;0.00;;;;;7.70;72.09;99848.41;4811772;29;45705;-90
2021/12/02 03:58:25;;;;;;;;;4.00;0.75;;;;;7.43;71.63;99822.53;4811265;29;48566;-89
2021/12/02 04:00:52;;;;;;;;;0.75;0.75;;;;;7.38;71.85;99819.41;4808902;29;46599;-84
2021/12/02 04:03:17;;;;;;;;;1.00;0.00;;;;;7.22;71.30;99818.81;4807663;29;45529;-85
2021/12/02 04:05:43;;;;;;;;;2.00;1.00;;;;;7.45;71.43;99851.88;4791648;29;45733;-87
2021/12/02 04:08:11;;;;;;;;;1.25;0.75;;;;;7.51;70.56;99866.25;4807972;29;46481;-84
2021/12/02 04:10:42;;;;;;;;;1.00;0.25;;;;;7.47;70.23;99831.78;4794372;29;46949;-87
2021/12/02 04:15:36;;;;;;;;;1.00;0.00;;;;;7.44;69.31;99847.63;4814062;29;45679;-83
2021/12/02 04:21:24;;;;;;;;;0.75;0.00;;;;;7.28;69.43;99854.03;4817026;29;45755;-83
2021/12/02 04:23:49;;;;;;;;;0.00;0.00;;;;;7.20;68.68;99827.66;4818390;29;45494;-82
2021/12/02 04:26:14;;;;;;;;;1.00;0.75;;;;;6.79;68.59;99784.50;4801147;29;45912;-85
2021/12/02 04:28:40;;;;;;;;;0.25;0.25;;;;;6.84;68.30;99808.44;4812667;29;46472;-87
2021/12/02 04:31:06;;;;;;;;;1.00;0.00;;;;;7.22;67.86;99867.47;4811136;29;46083;-87
2021/12/02 04:33:32;;;;;;;;;0.00;0.00;;;;;7.18;67.97;99871.22;4810392;29;45626;-86
2021/12/02 04:36:00;;;;;;;;;0.50;0.00;;;;;7.14;67.79;99873.19;4792713;29;45651;-85
2021/12/02 04:38:29;;;;;;;;;1.00;1.00;;;;;6.67;67.37;99812.19;4792082;29;47615;-85
2021/12/02 04:40:56;;;;;;;;;0.25;0.00;;;;;6.85;67.66;99858.75;4793175;29;47327;-86
2021/12/02 04:43:21;;;;;;;;;1.00;1.00;;;;;6.74;67.86;99847.28;4796094;29;45812;-87
2021/12/02 04:45:48;;;;;;;;;1.00;1.00;;;;;6.59;67.92;99835.28;4799270;29;45883;-87
2021/12/02 04:51:35;;;;;;;;;0.75;0.25;;;;;6.81;68.20;99875.47;4811892;29;45589;-85
2021/12/02 04:54:01;;;;;;;;;2.00;1.00;;;;;6.90;68.33;99906.13;4811004;29;45823;-85
2021/12/02 04:56:27;;;;;;;;;0.25;0.25;;;;;6.76;68.77;99904.44;4809197;29;45710;-85
2021/12/02 04:58:52;;;;;;;;;1.00;0.00;;;;;6.72;68.16;99900.38;4810834;29;45773;-84
2021/12/02 05:01:18;;;;;;;;;0.75;0.00;;;;;6.82;68.40;99927.47;4793729;29;47930;-86
2021/12/02 05:03:43;;;;;;;;;4.00;0.00;;;;;6.46;68.22;99876.09;4775939;29;45724;-84
2021/12/02 05:06:09;;;;;;;;;2.00;0.50;;;;;6.73;68.48;99925.47;4790096;29;46005;-85
2021/12/02 05:08:35;;;;;;;;;0.25;0.25;;;;;6.45;68.43;99873.56;4790552;29;46390;-86
2021/12/02 05:11:00;;;;;;;;;1.50;0.75;;;;;6.69;68.46;99918.81;4806845;29;45742;-86
2021/12/02 05:13:26;;;;;;;;;1.00;1.00;;;;;6.36;68.76;99890.63;4791065;29;46109;-87
2021/12/02 05:15:51;;;;;;;;;1.00;0.00;;;;;6.39;68.62;99906.03;4791741;29;45976;-84
2021/12/02 05:18:17;;;;;;;;;1.00;1.00;;;;;6.42;68.33;99897.19;4792833;29;47612;-85
2021/12/02 05:20:44;;;;;;;;;0.25;0.00;;;;;6.58;68.71;99935.13;4810984;29;46133;-86
2021/12/02 05:23:09;;;;;;;;;1.00;0.50;;;;;6.42;68.75;99897.19;4794306;29;45680;-84
2021/12/02 05:25:35;;;;;;;;;1.00;1.00;;;;;6.49;69.02;99916.66;4794548;29;45586;-87
2021/12/02 05:28:00;;;;;;;;;1.00;0.00;;;;;6.35;68.71;99912.38;4791168;29;46837;-85
2021/12/02 05:30:25;;;;;;;;;1.00;0.00;;;;;6.34;69.15;99913.28;4806657;29;45564;-84
2021/12/02 05:32:51;;;;;;;;;0.00;0.00;;;;;6.47;69.13;99955.81;4806696;29;45752;-88
2021/12/02 05:35:16;;;;;;;;;2.00;0.00;;;;;6.33;69.20;99950.63;4808275;29;45468;-86
2021/12/02 05:37:42;;;;;;;;;1.00;1.00;;;;;6.14;69.54;99919.78;4807370;29;45697;-85
2021/12/02 05:40:08;;;;;;;;;2.00;0.00;;;;;6.20;69.76;99929.81;4807614;29;45727;-87
2021/12/02 05:42:35;;;;;;;;;1.00;0.75;;;;;5.56;69.95;99825.63;4807219;29;45762;-86
2021/12/02 05:45:00;;;;;;;;;1.25;1.00;;;;;6.05;69.70;99927.31;4792026;29;45754;-84
2021/12/02 05:47:26;;;;;;;;;1.00;1.00;;;;;6.24;69.88;99959.03;4801276;29;45995;-84
2021/12/02 05:49:52;;;;;;;;;1.00;1.00;;;;;6.11;69.92;99924.34;4819348;29;46685;-85
2021/12/02 05:52:18;;;;;;;;;2.00;1.00;;;;;6.02;69.72;99907.56;4802365;29;45973;-86
2021/12/02 05:54:43;;;;;;;;;2.00;0.25;;;;;6.08;69.87;99927.13;4820206;29;45485;-82
2021/12/02 05:57:09;;;;;;;;;1.25;1.00;;;;;5.86;69.75;99897.28;4802825;29;47216;-83
2021/12/02 05:59:34;;;;;;;;;1.75;0.25;;;;;5.92;69.86;99914.28;4810208;29;46343;-83
2021/12/02 06:02:00;;;;;;;;;1.00;1.00;;;;;6.08;69.74;99953.16;4810573;29;45505;-83
2021/12/02 06:04:26;;;;;;;;;1.00;1.00;;;;;6.05;69.66;99950.72;4793459;29;45676;-86
2021/12/02 06:06:53;;;;;;;;;1.00;1.00;;;;;6.04;69.67;99954.28;4806988;29;48527;-84
2021/12/02 06:09:19;;;;;;;;;2.00;1.25;;;;;5.65;69.51;99908.19;4793648;29;47080;-86
2021/12/02 06:11:46;;;;;;;;;2.50;1.00;;;;;5.80;69.77;99915.84;4791597;29;46101;-85
2021/12/02 06:14:16;;;;;;;;;2.00;1.50;;;;;5.92;69.60;99960.22;4807390;29;45640;-83
2021/12/02 06:16:42;;;;;;;;;1.50;0.00;;;;;5.59;69.93;99914.59;4790939;29;46618;-84
2021/12/02 06:22:29;;;;;;;;;4.50;1.75;;;;;5.62;70.06;99921.34;4806461;29;45534;-84
2021/12/02 06:25:16;;;;;;;;;1.00;1.00;;;;;5.91;69.98;99969.78;4806937;29;45691;-85
2021/12/02 06:27:52;;;;;;;;;1.00;0.00;;;;;5.77;69.70;99939.44;4807257;29;45737;-87
2021/12/02 06:30:18;;;;;;;;;0.25;0.25;;;;;5.52;69.78;99915.88;4806582;29;46350;-85
2021/12/02 06:32:44;;;;;;;;;0.50;0.00;;;;;5.47;69.62;99926.56;4790479;29;46116;-86
2021/12/02 06:35:11;;;;;;;;;2.50;0.00;;;;;5.80;69.99;99978.22;4792311;29;46031;-85
2021/12/02 06:37:38;;;;;;;;;1.00;1.00;;;;;5.49;70.03;99910.88;4808915;29;45904;-85
2021/12/02 06:40:05;;;;;;;;;0.75;0.75;;;;;5.47;70.14;99910.13;4790820;29;46305;-84
2021/12/02 06:42:31;;;;;;;;;0.25;0.00;;;;;5.54;69.73;99937.41;4775309;29;46079;-87
2021/12/02 06:44:59;;;;;;;;;0.00;0.00;;;;;5.46;69.97;99927.47;4791423;29;45851;-86
2021/12/02 06:47:31;;;;;;;;;0.00;0.00;;;;;5.40;69.83;99919.22;4810174;29;45844;-88
2021/12/02 06:50:01;;;;;;;;;1.25;0.50;;;;;5.59;69.67;99965.72;4810346;29;46598;-83
2021/12/02 06:52:27;;;;;;;;;0.25;0.00;;;;;5.59;69.76;99974.34;4816091;29;45699;-84
2021/12/02 06:54:54;;;;;;;;;0.75;0.25;;;;;5.66;69.78;99985.19;4815016;29;45691;-84
2021/12/02 06:57:20;;;;;;;;;0.75;0.00;;;;;5.63;69.66;100004.41;4810552;29;45632;-79
2021/12/02 06:59:45;;;;;;;;;2.00;0.00;;;;;5.56;69.75;99994.50;4803686;29;46814;-74
2021/12/02 07:02:10;;;;;;;;;4.00;0.75;;;;;5.43;69.81;99978.78;4803524;29;45822;-76
2021/12/02 07:04:36;;;;;;;;;0.50;0.50;;;;;5.41;69.83;99983.22;4803565;29;45639;-75
2021/12/02 07:07:01;;;;;;;;;1.50;1.00;;;;;5.63;69.82;100019.16;4806020;29;46403;-75
2021/12/02 07:09:27;;;;;;;;;0.00;0.00;;;;;5.65;69.45;100056.28;4805800;29;46144;-75
2021/12/02 07:11:52;;;;;;;;;1.00;1.00;;;;;5.67;69.60;100039.66;4806367;29;45660;-75
2021/12/02 07:14:19;;;;;;;;;1.50;1.00;;;;;5.69;69.29;100036.97;4806311;29;45591;-74
2021/12/02 07:16:45;;;;;;;;;1.25;1.00;;;;;5.72;69.55;100063.59;4806460;29;45647;-75
2021/12/02 07:22:32;;;;;;;;;2.00;0.00;;;;;5.71;69.58;100056.75;4805138;29;45859;-74
2021/12/02 07:24:57;;;;;;;;;0.50;0.50;;;;;5.77;68.96;100048.59;4789236;29;45653;-74
2021/12/02 07:27:23;;;;;;;;;1.00;0.00;;;;;5.76;68.98;100059.91;4806017;29;46635;-76
2021/12/02 07:29:48;;;;;;;;;1.50;0.00;;;;;5.76;69.38;100067.72;4806092;29;45919;-75
2021/12/02 07:32:14;;;;;;;;;1.25;0.00;;;;;5.71;69.08;100059.34;4806280;29;45964;-74
2021/12/02 07:38:02;;;;;;;;;1.00;1.00;;;;;5.75;68.69;100071.22;4805693;29;45659;-75
2021/12/02 07:40:33;;;;;;;;;0.00;0.00;;;;;5.75;68.71;100070.41;4806245;29;46267;-74
2021/12/02 07:43:00;;;;;;;;;0.00;0.00;;;;;5.76;69.20;100041.72;4806143;29;45592;-74
2021/12/02 07:45:31;;;;;;;;;1.00;0.75;;;;;5.79;69.07;100069.28;4806161;29;45671;-75
2021/12/02 07:47:57;;;;;;;;;0.00;0.00;;;;;5.80;68.63;100057.97;4805550;29;45682;-76
2021/12/02 07:50:22;;;;;;;;;1.75;1.00;;;;;5.73;68.47;100038.44;4805908;29;45691;-74
2021/12/02 07:52:53;;;;;;;;;1.00;1.00;;;;;5.80;68.91;100044.97;4805993;29;45566;-75
2021/12/02 07:55:21;;;;;;;;;4.75;1.25;;;;;5.83;68.77;100063.78;4806030;29;45593;-74
2021/12/02 07:57:47;;;;;;;;;1.50;0.00;;;;;5.77;68.61;100050.34;4805655;29;45670;-76
2021/12/02 08:00:16;;;;;;;;;4.75;4.25;;;;;5.72;69.09;100044.59;4805820;29;45591;-75
2021/12/02 08:02:44;;;;;;;;;1.75;1.25;;;;;5.83;69.02;100066.38;4789494;29;45780;-76
2021/12/02 08:05:10;;;;;;;;;1.00;0.00;;;;;5.83;69.14;100069.00;4806150;29;45802;-75
2021/12/02 08:07:39;;;;;;;;;0.25;0.25;;;;;5.83;68.68;100082.00;4805329;29;45704;-75
2021/12/02 08:10:06;;;;;;;;;0.75;0.00;;;;;5.84;69.08;100070.66;4805605;29;47023;-74
2021/12/02 08:12:32;;;;;;;;;1.50;1.00;;;;;5.87;69.04;100085.28;4805771;29;45921;-75
2021/12/02 08:15:00;;;;;;;;;1.00;1.00;;;;;5.85;68.86;100093.13;4806086;29;45700;-75
2021/12/02 08:17:26;;;;;;;;;0.00;0.00;;;;;5.87;68.79;100098.28;4804565;29;46687;-76
2021/12/02 08:23:13;;;;;;;;;2.00;0.25;;;;;5.92;68.54;100095.41;4805464;29;45750;-76
2021/12/02 08:25:38;;;;;;;;;1.00;1.00;;;;;5.84;69.08;100082.81;4805435;29;45701;-76
2021/12/02 08:28:04;;;;;;;;;2.00;1.00;;;;;5.90;68.54;100108.50;4804922;29;46355;-74
2021/12/02 08:30:32;;;;;;;;;0.75;0.25;;;;;5.91;68.66;100115.38;4805484;29;46299;-75
2021/12/02 08:32:58;;;;;;;;;1.50;0.75;;;;;5.84;68.28;100111.41;4805541;29;45643;-74
2021/12/02 08:35:25;;;;;;;;;1.00;0.00;;;;;5.92;68.39;100111.84;4805527;29;45624;-75
2021/12/02 08:37:52;;;;;;;;;1.00;0.00;;;;;5.90;68.72;100124.09;4805143;29;45548;-77
2021/12/02 08:40:33;;;;;;;;;0.50;0.50;;;;;5.89;68.51;100117.22;4805150;29;46684;-75
2021/12/02 08:43:00;;;;;;;;;2.50;1.00;;;;;5.87;68.27;100119.09;4805321;29;46103;-74
2021/12/02 08:45:30;;;;;;;;;0.50;0.50;;;;;5.85;68.53;100134.72;4774051;29;45553;-76
2021/12/02 08:47:57;;;;;;;;;2.25;0.75;;;;;5.79;68.24;100131.66;4804418;29;47570;-75
2021/12/02 08:50:24;;;;;;;;;0.00;0.00;;;;;5.84;68.43;100137.41;4804948;29;45722;-75
2021/12/02 08:52:52;;;;;;;;;2.00;1.00;;;;;5.82;68.73;100136.69;4805115;29;45603;-75
2021/12/02 08:55:20;;;;;;;;;0.00;0.00;;;;;5.81;68.43;100128.06;4774125;29;45934;-75
2021/12/02 08:57:50;;;;;;;;;3.00;1.50;;;;;5.80;68.43;100143.72;4804525;29;46541;-75
2021/12/02 09:00:20;;;;;;;;;3.00;1.00;;;;;5.84;68.69;100142.59;4804957;29;46129;-76
2021/12/02 09:02:46;;;;;;;;;0.00;0.00;;;;;5.83;68.12;100144.38;4804779;29;45688;-75
2021/12/02 09:08:33;;;;;;;;;1.00;0.75;;;;;5.86;68.49;100157.19;4802663;29;46089;-75
2021/12/02 09:10:59;;;;;;;;;1.00;0.50;;;;;5.85;68.54;100155.53;4788376;29;46561;-76
2021/12/02 09:13:24;;;;;;;;;1.00;0.00;;;;;5.83;68.89;100165.16;4804832;29;45639;-76
2021/12/02 09:15:50;;;;;;;;;1.25;1.00;;;;;5.89;68.14;100164.84;4773363;29;45904;-74
2021/12/02 09:18:15;;;;;;;;;1.00;1.00;;;;;5.93;68.59;100168.13;4804529;29;45863;-76
2021/12/02 09:20:42;;;;;;;;;0.00;0.00;;;;;5.97;68.80;100167.00;4804622;29;46231;-76
2021/12/02 09:23:08;;;;;;;;;1.50;1.00;;;;;5.99;68.76;100166.91;4804887;29;45932;-76
2021/12/02 09:25:33;;;;;;;;;1.00;1.00;;;;;6.06;68.69;100168.19;4804320;29;45544;-75
2021/12/02 09:27:59;;;;;;;;;1.00;1.00;;;;;6.10;68.56;100174.91;4802725;29;45579;-75
2021/12/02 09:30:25;;;;;;;;;1.50;1.00;;;;;6.12;68.26;100173.88;4803978;29;46875;-75
2021/12/02 09:32:51;;;;;;;;;2.00;1.00;;;;;6.11;68.51;100167.00;4804173;29;45824;-75
2021/12/02 09:38:38;;;;;;;;;2.00;1.00;;;;;6.23;68.20;100181.88;4804006;29;45752;-73
2021/12/02 09:41:03;;;;;;;;;1.00;1.00;;;;;6.26;68.15;100179.09;4804307;29;46064;-76
2021/12/02 09:43:29;;;;;;;;;2.00;1.00;;;;;6.28;68.10;100184.19;4804288;29;45757;-74
2021/12/02 09:45:54;;;;;;;;;1.50;1.50;;;;;6.29;68.50;100186.72;4804442;29;45502;-74
2021/12/02 09:48:20;;;;;;;;;2.00;1.50;;;;;6.20;67.96;100165.63;4803711;29;46623;-76
2021/12/02 09:51:04;;;;;;;;;2.00;1.00;;;;;6.38;67.94;100189.69;4804124;29;45589;-74
2021/12/02 09:53:35;;;;;;;;;1.00;1.00;;;;;6.42;67.95;100202.44;4787822;29;45804;-75
2021/12/02 09:58:30;;;;;;;;;1.50;0.75;;;;;6.48;67.74;100217.66;4803577;29;45570;-76
2021/12/02 10:03:36;;;;;;;;;1.25;0.75;;;;;6.53;67.21;100217.41;4804572;29;45844;-74
2021/12/02 10:06:18;;;;;;;;;1.00;0.00;;;;;6.55;67.44;100210.31;4805154;29;45730;-74
2021/12/02 10:09:08;;;;;;;;;1.00;0.50;;;;;6.54;67.31;100204.28;4804583;29;46987;-75
2021/12/02 10:11:40;;;;;;;;;0.75;0.75;;;;;6.54;67.25;100225.09;4803901;29;46973;-76
2021/12/02 10:14:31;;;;;;;;;4.00;1.00;;;;;6.59;67.39;100211.78;4804150;29;45687;-76
2021/12/02 10:17:11;;;;;;;;;2.00;0.00;;;;;6.62;67.06;100217.66;4804032;29;45695;-76
2021/12/02 10:19:36;;;;;;;;;0.25;0.25;;;;;6.67;66.74;100215.63;4803603;29;47271;-76
2021/12/02 10:22:09;;;;;;;;;1.00;0.25;;;;;6.69;66.76;100200.72;4803663;29;46411;-74
2021/12/02 10:24:43;;;;;;;;;1.50;0.00;;;;;6.72;66.35;100212.72;4804069;29;45892;-76
2021/12/02 10:27:11;;;;;;;;;0.00;0.00;;;;;6.74;66.50;100216.09;4804166;29;45908;-74
2021/12/02 10:29:42;;;;;;;;;0.75;0.00;;;;;6.68;66.62;100198.22;4803317;29;46415;-75
2021/12/02 10:32:21;;;;;;;;;0.00;0.00;;;;;6.78;66.31;100214.97;4803613;29;46410;-75
2021/12/02 10:34:54;;;;;;;;;1.00;1.00;;;;;6.81;66.01;100208.69;4803736;29;45639;-75
2021/12/02 10:37:21;;;;;;;;;1.25;1.00;;;;;6.78;65.39;100203.69;4803235;29;45577;-75
2021/12/02 10:40:14;;;;;;;;;0.25;0.00;;;;;6.83;64.50;100245.91;4803548;29;46798;-75
2021/12/02 10:42:43;;;;;;;;;0.00;0.00;;;;;6.68;64.35;100199.06;4804529;29;46793;-74
2021/12/02 10:45:27;;;;;;;;;1.25;1.00;;;;;6.78;64.31;100221.94;4806642;29;46002;-75
2021/12/02 10:47:54;;;;;;;;;1.25;0.00;;;;;6.70;64.18;100191.16;4806489;29;45847;-76
2021/12/02 10:50:22;;;;;;;;;1.00;0.00;;;;;6.80;64.11;100188.84;4806934;29;46488;-74
2021/12/02 10:52:49;;;;;;;;;0.25;0.00;;;;;6.80;64.26;100194.88;4806756;29;46159;-75
2021/12/02 10:55:19;;;;;;;;;1.00;0.50;;;;;6.81;63.76;100193.09;4790365;29;45655;-75
2021/12/02 10:57:57;;;;;;;;;0.00;0.00;;;;;6.76;63.16;100216.81;4806859;29;45583;-75
2021/12/02 11:00:24;;;;;;;;;0.00;0.00;;;;;6.81;63.27;100206.94;4806402;29;47414;-76
2021/12/02 11:02:54;;;;;;;;;0.00;0.00;;;;;6.82;62.97;100186.94;4806799;29;46101;-76
2021/12/02 11:05:30;;;;;;;;;1.75;0.50;;;;;6.83;62.91;100183.41;4806698;29;45618;-76
2021/12/02 11:08:06;;;;;;;;;1.00;0.00;;;;;6.88;63.07;100178.75;4806352;29;45833;-74
2021/12/02 11:10:46;;;;;;;;;1.00;1.00;;;;;6.90;63.08;100184.72;4806355;29;46332;-75
2021/12/02 11:13:21;;;;;;;;;2.00;1.00;;;;;6.91;62.69;100184.59;4789919;29;46711;-75
2021/12/02 11:15:49;;;;;;;;;1.00;1.00;;;;;6.92;62.45;100170.66;4790607;29;45901;-75
2021/12/02 11:18:17;;;;;;;;;1.00;0.50;;;;;6.97;62.12;100175.56;4789945;29;45804;-75
2021/12/02 11:20:48;;;;;;;;;2.75;0.75;;;;;6.99;62.19;100186.75;4806061;29;46899;-75
2021/12/02 11:23:21;;;;;;;;;0.50;0.50;;;;;7.02;61.00;100163.09;4806062;29;46534;-74
2021/12/02 11:25:49;;;;;;;;;0.00;0.00;;;;;7.03;61.47;100176.03;4806608;29;46037;-76
2021/12/02 11:28:15;;;;;;;;;0.75;0.75;;;;;6.98;60.73;100185.91;4806129;29;45967;-74
2021/12/02 11:30:40;;;;;;;;;0.00;0.00;;;;;6.96;60.43;100155.69;4805862;29;45705;-76
2021/12/02 11:33:08;;;;;;;;;0.00;0.00;;;;;6.99;60.42;100158.94;4806295;29;46644;-75
2021/12/02 11:35:43;;;;;;;;;0.00;0.00;;;;;7.02;61.12;100174.34;4806049;29;45844;-76
2021/12/02 11:38:23;;;;;;;;;0.00;0.00;;;;;7.03;61.92;100176.03;4806234;29;45820;-76
2021/12/02 11:40:55;;;;;;;;;1.75;0.00;;;;;7.06;60.97;100139.38;4805821;29;46610;-74
2021/12/02 11:43:25;;;;;;;;;0.00;0.00;;;;;7.05;61.44;100163.75;4806041;29;46078;-75
2021/12/02 11:45:51;;;;;;;;;0.00;0.00;;;;;7.07;61.06;100155.84;4806045;29;45701;-74
2021/12/02 11:48:24;;;;;;;;;1.00;0.00;;;;;7.08;60.39;100173.97;4805825;29;45564;-75
2021/12/02 11:50:54;;;;;;;;;0.00;0.00;;;;;6.92;59.11;100157.63;4806338;29;46301;-76
2021/12/02 11:53:22;;;;;;;;;0.00;0.00;;;;;7.01;59.75;100158.84;4806139;29;45907;-74
2021/12/02 11:55:50;;;;;;;;;0.00;0.00;;;;;7.00;59.45;100158.00;4788705;29;45791;-75
2021/12/02 11:58:17;;;;;;;;;0.00;0.00;;;;;7.01;59.02;100164.06;4805643;29;45739;-76
2021/12/02 12:00:43;;;;;;;;;0.00;0.00;;;;;7.00;59.15;100164.97;4805566;29;46514;-75
2021/12/02 12:03:13;;;;;;;;;0.75;0.00;;;;;6.94;58.75;100150.56;4789212;29;46526;-75
2021/12/02 12:06:05;;;;;;;;;0.00;0.00;;;;;7.02;58.50;100166.53;4805320;29;45791;-74
2021/12/02 12:08:33;;;;;;;;;0.00;0.00;;;;;7.04;58.11;100188.13;4788959;29;45966;-76
2021/12/02 12:11:23;;;;;;;;;0.00;0.00;;;;;6.93;58.31;100133.28;4805764;29;46915;-75
2021/12/02 12:13:58;;;;;;;;;0.00;0.00;;;;;7.10;57.65;100181.69;4767099;29;46657;-75
2021/12/02 12:16:27;;;;;;;;;0.00;0.00;;;;;7.06;57.35;100159.38;4767190;29;45656;-74
2021/12/02 12:22:31;;;;;;;;;0.00;0.00;;;;;7.20;57.57;100154.13;4767539;29;45751;-74
2021/12/02 12:25:06;;;;;;;;;0.00;0.00;;;;;7.21;57.56;100166.22;4767812;29;46038;-77
2021/12/02 12:27:37;;;;;;;;;1.00;0.00;;;;;7.23;57.62;100147.88;4767242;29;45811;-77
2021/12/02 12:30:12;;;;;;;;;0.00;0.00;;;;;7.28;57.31;100162.28;4767928;29;45777;-76
2021/12/02 12:38:40;;;;;;;;;0.50;0.00;;;;;7.38;57.43;100149.50;4767565;29;45614;-75
2021/12/02 12:41:14;;;;;;;;;0.00;0.00;;;;;7.39;57.58;100141.59;4767860;29;45916;-74
2021/12/02 12:43:46;;;;;;;;;0.00;0.00;;;;;7.42;57.08;100141.38;4767259;29;46446;-76
2021/12/02 12:46:15;;;;;;;;;0.00;0.00;;;;;7.43;56.29;100170.88;4767115;29;47171;-75
2021/12/02 12:48:42;;;;;;;;;0.00;0.00;;;;;7.41;56.42;100163.16;4752412;29;45613;-76